Impacts METAR Board
IDs:

KCLT - Charlotte/Douglas In, NC, US

Updated at: 0100 UTC 31 May 2020
Potential Impact None Slight Moderate High
Time 30/13Z 30/14Z 30/15Z 30/16Z 30/17Z 30/18Z 30/19Z 30/20Z 30/21Z 30/22Z 30/23Z 31/00Z 31/01Z
Temp73 77 81 83 83 85 86 87 88 86 84 83 76
Dewpt68 68 67 66 64 62 61 60 59 61 63 64 65
Altim30.04 30.04 30.03 30.02 30.00 29.99 29.97 29.96 29.94 29.94 29.94 29.96 29.97
VIS8 10 10 10 10 10 10 10 10 10 10 10 10
CIG8 -- -- -- -- -- -- -- -- -- -- -- 75
CoverBKNSCTSCTSCTSCTSCTSCTSCTSCTSCTSCTSCTBKN
FltCatIFRVFRVFRVFRVFRVFRVFRVFRVFRVFRVFRVFRVFR
WX--------------------------
WDir2400310310260280270290310260034010
WSpd3 0 6 5 5 6 6 4 3 6 0 3 3
WGst-- -- -- -- -- -- -- -- -- -- -- -- --
Raw hourly METARs
KCLT 301252Z 24003KT 8SM BKN008 23/20 A3004 RMK AO2 SLP164 T02280200
KCLT 301352Z 00000KT 10SM FEW008 SCT011 25/20 A3004 RMK AO2 SLP163 T02500200
KCLT 301452Z 31006KT 10SM SCT017 27/19 A3003 RMK AO2 SLP158 T02720194 58002
KCLT 301552Z 31005KT 10SM SCT030 28/19 A3002 RMK AO2 SLP155 T02830189
KCLT 301652Z 26005KT 10SM SCT037 SCT060 28/18 A3000 RMK AO2 SLP151 T02830178
KCLT 301752Z 28006KT 10SM SCT046 SCT060 29/17 A2999 RMK AO2 SLP146 T02940167 10300 20222 58013
KCLT 301852Z 27006KT 10SM SCT048 SCT070 30/16 A2997 RMK AO2 SLP140 CB DSNT SE T03000161
KCLT 301952Z 29004KT 10SM SCT055 SCT080 31/16 A2996 RMK AO2 SLP136 CB DSNT SE T03060156
KCLT 302052Z 31003KT 10SM SCT055 31/15 A2994 RMK AO2 SLP130 T03110150 56015
KCLT 302152Z 26006KT 10SM SCT060 30/16 A2994 RMK AO2 SLP129 T03000161
KCLT 302252Z 00000KT 10SM SCT060 SCT070 29/17 A2994 RMK AO2 SLP130 T02890172
KCLT 302352Z 34003KT 10SM SCT070 28/18 A2996 RMK AO2 SLP134 T02830178 10317 20283 53004
KCLT 310052Z 01003KT 10SM BKN075 24/18 A2997 RMK AO2 SLP141 T02440183



Page loaded:  01:44 UTC  |   06:44 PM Pacific  |   07:44 PM Mountain  |   08:44 PM Central  |   09:44 PM Eastern

 

ADVISORIES

FORECASTS

FORECASTS

OBSERVATIONS

USER TOOLS

ABOUT US